CheckWX is a tool to help pilots better visualize weather data.  It is not intended as a substitute for an official pre-flight weather briefing.

10:23:31 UTC

BGBW METAR
Narsarsuaq Airport
Narsarsuaq, Greenland
Current

34 mins ago

BGBW 190950Z 06002KT 9999 BCFG FEW001 SCT008 BKN015 08/06 Q1010
Observed
Aug-19 @ 09:50 UTC
Wind
  • 060° at 2 KTS
Visibility
10,000+ meters
Flight Rules
MVFR
Conditions
Patches of Fog
Cloud Levels
  • Few at 100' AGL
  • Scattered at 800' AGL
  • Broken at 1,500' AGL
Temperature
C / 46°F
Dewpoint
C / 43°F
Humidity
87%
Altimeter
29.82" Hg
Pressure
1009.92 hPa
Previous

2 hours ago

BGBW 190850Z AUTO 05003KT 9999NDV FEW014/// BKN018/// BKN035/// 06/05 Q1009
Observed
Aug-19 @ 08:50 UTC
Wind
  • 050° at 3 KTS
Visibility
Cloud Levels
  • Few at 1,400' AGL
  • Broken at 1,800' AGL
  • Broken at 3,500' AGL
Temperature
C / 43°F
Dewpoint
C / 41°F
Humidity
93%
Altimeter
29.79" Hg
Pressure
1008.92 hPa
Previous

3 hours ago

BGBW 190750Z AUTO 05003KT 9999NDV FEW010/// BKN016/// OVC025/// 06/05 Q1009
Observed
Aug-19 @ 07:50 UTC
Wind
  • 050° at 3 KTS
Visibility
Cloud Levels
  • Few at 1,000' AGL
  • Broken at 1,600' AGL
  • Overcast at 2,500' AGL
Temperature
C / 43°F
Dewpoint
C / 41°F
Humidity
93%
Altimeter
29.79" Hg
Pressure
1008.92 hPa